Time;durP1;ratioP1;P1;durP2;ratioP2;P2;SDS_P1;SDS_P2;PMS_P1;PMS_P2;Temp;Humidity;BMP_temperature;BMP_pressure;BME280_temperature;BME280_humidity;BME280_pressure;Samples;Min_cycle;Max_cycle;Signal;HPM_P1;HPM_P2
2022/04/30 00:02:15;;;;;;;;;40.00;29.00;;;;;12.29;48.14;102022.88;5037204;28;66518;-49
2022/04/30 00:04:45;;;;;;;;;37.75;26.50;;;;;12.28;47.63;102018.50;5047444;28;45426;-50
2022/04/30 00:07:18;;;;;;;;;32.00;24.75;;;;;12.25;48.22;102021.19;5038102;28;45282;-52
2022/04/30 00:09:44;;;;;;;;;35.00;27.75;;;;;12.26;48.36;102020.28;5036645;28;45457;-51
2022/04/30 00:12:09;;;;;;;;;30.50;26.00;;;;;12.24;47.93;102024.69;5037771;28;45993;-53
2022/04/30 00:14:35;;;;;;;;;30.75;26.75;;;;;12.17;48.22;102025.66;5036164;28;45399;-51
2022/04/30 00:17:00;;;;;;;;;35.25;25.75;;;;;12.09;48.60;102028.41;5038963;28;45269;-52
2022/04/30 00:19:27;;;;;;;;;35.75;30.00;;;;;12.01;48.67;102021.50;5036431;28;68267;-52
2022/04/30 00:21:52;;;;;;;;;34.50;28.75;;;;;11.93;48.69;102027.72;5039837;28;46320;-52
2022/04/30 00:24:17;;;;;;;;;30.75;23.75;;;;;11.91;49.17;102025.97;5028346;28;61087;-52
2022/04/30 00:26:43;;;;;;;;;37.00;27.50;;;;;11.89;48.76;102025.09;5039833;28;45269;-51
2022/04/30 00:29:09;;;;;;;;;35.00;27.50;;;;;11.84;49.09;102024.28;5030570;28;45458;-50
2022/04/30 00:31:35;;;;;;;;;29.25;27.75;;;;;11.77;49.79;102027.00;5039668;28;46220;-51
2022/04/30 00:34:01;;;;;;;;;36.75;24.75;;;;;11.72;49.29;102027.91;5032306;28;45297;-49
2022/04/30 00:36:26;;;;;;;;;39.00;32.25;;;;;11.63;49.73;102031.50;5029526;28;45272;-52
2022/04/30 00:38:52;;;;;;;;;31.75;21.50;;;;;11.50;50.77;102022.88;5032210;28;64352;-53
2022/04/30 00:41:18;;;;;;;;;36.75;28.75;;;;;11.48;50.72;102040.38;5039475;28;45401;-52
2022/04/30 00:43:48;;;;;;;;;34.50;28.00;;;;;11.46;51.13;102030.81;5032724;28;45589;-49
2022/04/30 00:46:14;;;;;;;;;37.00;29.00;;;;;11.46;50.56;102036.91;5039169;28;45263;-51
2022/04/30 00:48:40;;;;;;;;;34.25;28.25;;;;;11.44;50.54;102029.94;5032835;28;45324;-49
2022/04/30 00:51:12;;;;;;;;;31.75;30.00;;;;;11.43;50.42;102041.31;5039461;28;45408;-50
2022/04/30 00:53:38;;;;;;;;;37.25;25.50;;;;;11.41;51.10;102043.97;5032708;28;45364;-53
2022/04/30 00:56:05;;;;;;;;;36.25;29.25;;;;;11.39;51.26;102041.34;5039488;28;45253;-50
2022/04/30 00:58:30;;;;;;;;;37.75;27.50;;;;;11.39;51.12;102040.47;5033111;28;45324;-53
2022/04/30 01:00:56;;;;;;;;;38.25;30.00;;;;;11.38;51.59;102036.09;5038417;28;67433;-50
2022/04/30 01:03:22;;;;;;;;;33.00;23.50;;;;;11.36;51.31;102030.88;5030691;28;63587;-53
2022/04/30 01:05:49;;;;;;;;;37.25;27.00;;;;;11.33;51.68;102028.31;5038175;28;45368;-51
2022/04/30 01:08:14;;;;;;;;;32.25;27.75;;;;;11.32;52.18;102028.31;5033272;28;45810;-53
2022/04/30 01:10:39;;;;;;;;;36.75;25.75;;;;;11.30;51.09;102030.94;5037704;28;52087;-53
2022/04/30 01:13:05;;;;;;;;;34.00;29.00;;;;;11.26;51.38;102024.00;5034037;28;45566;-53
2022/04/30 01:15:31;;;;;;;;;40.25;26.50;;;;;11.19;51.57;102023.19;5038270;28;45423;-52
2022/04/30 01:17:56;;;;;;;;;43.25;29.00;;;;;11.14;52.30;102014.50;5034107;28;45386;-50
2022/04/30 01:20:21;;;;;;;;;39.00;27.50;;;;;11.16;52.39;102011.88;5012127;28;48519;-52
2022/04/30 01:23:03;;;;;;;;;36.75;27.00;;;;;11.17;52.36;102014.47;5015899;28;45297;-51
2022/04/30 01:25:30;;;;;;;;;35.25;29.00;;;;;11.17;51.59;102009.25;5031761;28;45398;-52
2022/04/30 01:27:57;;;;;;;;;39.25;27.00;;;;;11.14;52.46;102009.25;5036753;28;45589;-51
2022/04/30 01:30:23;;;;;;;;;36.25;25.25;;;;;11.14;52.66;102006.63;5031751;28;47174;-52
2022/04/30 01:38:16;;;;;;;;;33.75;26.25;;;;;11.14;52.32;102009.25;5028965;28;45514;-53
2022/04/30 01:40:42;;;;;;;;;38.25;28.75;;;;;11.12;53.06;102008.41;5036288;28;46116;-51
2022/04/30 01:43:08;;;;;;;;;38.25;25.25;;;;;11.11;53.04;102006.66;5032236;28;45423;-50
2022/04/30 01:45:33;;;;;;;;;34.00;30.00;;;;;11.11;53.34;102004.03;5038558;28;45311;-52
2022/04/30 01:47:59;;;;;;;;;35.50;29.50;;;;;11.13;53.30;101998.78;5032156;28;45350;-52
2022/04/30 01:50:24;;;;;;;;;37.25;24.75;;;;;11.14;52.69;101996.16;5039955;28;45965;-49
2022/04/30 01:52:50;;;;;;;;;38.75;33.50;;;;;11.13;53.03;101999.66;5035874;28;64701;-51
2022/04/30 01:55:15;;;;;;;;;49.25;34.00;;;;;11.15;53.07;101989.16;5041237;28;45289;-49
2022/04/30 01:57:41;;;;;;;;;30.25;24.50;;;;;11.17;53.14;101992.63;5037802;28;45216;-51
2022/04/30 02:00:09;;;;;;;;;35.75;29.25;;;;;11.17;53.30;101985.66;5039776;28;45969;-51
2022/04/30 02:02:35;;;;;;;;;30.75;26.50;;;;;11.17;53.44;101984.75;5038336;28;45315;-52
2022/04/30 02:05:05;;;;;;;;;33.00;26.00;;;;;11.16;52.56;101988.28;5035675;28;45371;-53
2022/04/30 02:07:30;;;;;;;;;35.50;26.50;;;;;11.13;52.76;101988.31;5038532;28;45413;-53
2022/04/30 02:09:58;;;;;;;;;39.00;29.75;;;;;11.10;53.75;101989.22;5039511;28;46809;-53
2022/04/30 02:12:23;;;;;;;;;32.50;29.25;;;;;10.99;53.79;101968.31;5037983;28;46071;-52
2022/04/30 02:14:51;;;;;;;;;35.00;25.50;;;;;11.09;53.43;101978.75;5023019;28;61067;-51
2022/04/30 02:17:17;;;;;;;;;36.00;25.75;;;;;11.08;53.19;101982.25;5039377;28;45265;-51
2022/04/30 02:22:30;;;;;;;;;36.75;22.75;;;;;11.07;53.20;101980.53;5038472;28;46460;-53
2022/04/30 02:24:56;;;;;;;;;37.50;25.25;;;;;11.05;52.87;101979.63;5040475;28;45443;-52
2022/04/30 02:27:22;;;;;;;;;29.50;24.25;;;;;10.98;53.71;101969.22;5021998;28;45427;-52
2022/04/30 02:29:47;;;;;;;;;34.00;26.00;;;;;10.98;54.29;101977.09;5011881;28;69173;-50
2022/04/30 02:32:13;;;;;;;;;28.75;24.00;;;;;10.99;54.13;101968.31;5032890;28;45720;-51
2022/04/30 02:34:38;;;;;;;;;38.50;31.25;;;;;10.99;53.11;101981.44;5037099;28;45340;-51
2022/04/30 02:37:04;;;;;;;;;43.00;27.75;;;;;10.96;54.36;101976.25;5039830;28;66635;-52
2022/04/30 02:39:30;;;;;;;;;34.00;25.75;;;;;10.97;54.06;101982.34;5033082;28;64495;-52
2022/04/30 02:41:56;;;;;;;;;36.00;27.75;;;;;10.97;54.07;101977.09;5040574;28;45348;-53
2022/04/30 02:44:25;;;;;;;;;32.00;26.00;;;;;10.96;54.37;101971.00;5035563;28;45387;-52
2022/04/30 02:46:51;;;;;;;;;47.75;32.50;;;;;10.94;54.17;101978.00;5040894;28;45433;-53
2022/04/30 02:49:17;;;;;;;;;32.50;23.00;;;;;10.94;54.36;101977.13;5034472;28;48013;-52
2022/04/30 02:51:43;;;;;;;;;32.25;26.00;;;;;10.93;54.56;101973.63;5041391;28;45412;-53
2022/04/30 02:54:08;;;;;;;;;33.00;26.00;;;;;10.96;54.71;101973.63;5034705;28;45295;-51
2022/04/30 02:56:34;;;;;;;;;34.25;27.25;;;;;10.96;54.30;101975.34;5040542;28;60954;-52
2022/04/30 03:01:43;;;;;;;;;29.00;23.50;;;;;10.96;54.38;101972.72;5037046;28;45889;-52
2022/04/30 03:04:08;;;;;;;;;37.75;28.25;;;;;10.94;54.48;101962.28;5033244;28;60822;-53
2022/04/30 03:06:34;;;;;;;;;29.25;26.50;;;;;10.94;54.63;101967.53;5037363;28;64718;-51
2022/04/30 03:09:00;;;;;;;;;31.50;22.25;;;;;10.93;54.54;101964.91;5030635;28;69756;-53
2022/04/30 03:11:25;;;;;;;;;32.75;25.75;;;;;10.93;54.83;101968.41;5039696;28;60136;-53
2022/04/30 03:13:51;;;;;;;;;34.25;27.25;;;;;10.94;54.77;101964.03;5037191;28;45689;-51
2022/04/30 03:21:44;;;;;;;;;35.75;29.50;;;;;10.95;54.71;101966.63;5028992;28;45954;-50
2022/04/30 03:24:18;;;;;;;;;39.25;25.00;;;;;10.94;54.33;101958.78;5029800;28;45259;-52
2022/04/30 03:26:49;;;;;;;;;34.75;24.75;;;;;10.95;54.44;101953.53;5039779;28;68492;-52
2022/04/30 03:29:15;;;;;;;;;31.00;26.50;;;;;10.92;55.24;101955.31;5030857;28;46310;-52
2022/04/30 03:31:41;;;;;;;;;38.00;29.25;;;;;10.93;54.46;101963.16;5039366;28;45310;-50
2022/04/30 03:34:13;;;;;;;;;34.75;26.50;;;;;10.93;54.66;101963.16;5034575;28;45300;-50
2022/04/30 03:36:39;;;;;;;;;28.25;20.50;;;;;10.93;54.37;101960.53;5040510;28;46348;-52
2022/04/30 03:39:04;;;;;;;;;34.25;28.50;;;;;10.92;54.64;101960.56;5031933;28;46265;-53
2022/04/30 03:41:30;;;;;;;;;33.75;28.25;;;;;10.92;54.94;101958.78;5040666;28;45333;-52
2022/04/30 03:43:55;;;;;;;;;36.00;30.50;;;;;10.92;54.57;101950.06;5033918;28;45596;-51
2022/04/30 03:46:21;;;;;;;;;35.75;26.50;;;;;10.92;54.76;101958.78;5038906;28;69399;-51
2022/04/30 03:48:51;;;;;;;;;34.75;23.25;;;;;10.91;54.73;101966.69;5033755;28;45335;-51
2022/04/30 03:51:17;;;;;;;;;43.75;28.50;;;;;10.90;54.79;101959.69;5038965;28;45368;-52
2022/04/30 03:53:42;;;;;;;;;32.00;23.25;;;;;10.90;55.26;101959.69;5033855;28;45309;-52
2022/04/30 03:56:08;;;;;;;;;25.25;20.25;;;;;10.91;55.25;101964.06;5039293;28;67618;-51
2022/04/30 03:58:33;;;;;;;;;32.75;26.50;;;;;10.92;54.75;101961.41;5033568;28;46065;-51
2022/04/30 04:00:58;;;;;;;;;34.00;26.25;;;;;10.93;54.94;101960.53;5039598;28;54429;-49
2022/04/30 04:03:24;;;;;;;;;36.00;29.25;;;;;10.81;55.02;101940.56;5034211;28;45351;-50
2022/04/30 04:05:49;;;;;;;;;24.50;20.00;;;;;10.92;55.13;101958.78;5034887;28;60886;-52
2022/04/30 04:08:16;;;;;;;;;37.75;27.00;;;;;10.94;54.68;101958.78;5032340;28;45920;-52
2022/04/30 04:10:41;;;;;;;;;34.25;31.00;;;;;10.94;55.49;101961.41;5039841;28;45759;-53
2022/04/30 04:18:35;;;;;;;;;34.25;26.00;;;;;10.96;55.28;101963.13;5036786;28;45663;-50
2022/04/30 04:21:00;;;;;;;;;39.00;26.25;;;;;10.98;54.97;101965.75;5039031;28;56695;-52
2022/04/30 04:23:26;;;;;;;;;32.50;29.25;;;;;10.97;54.96;101964.88;5033902;28;45292;-53
2022/04/30 04:26:00;;;;;;;;;34.50;26.50;;;;;10.96;54.57;101957.91;5035288;28;45389;-51
2022/04/30 04:28:28;;;;;;;;;31.00;27.50;;;;;10.92;55.04;101960.56;5033538;28;46247;-53
2022/04/30 04:30:54;;;;;;;;;43.25;30.75;;;;;10.86;55.25;101961.47;5036300;28;45783;-51
2022/04/30 04:33:20;;;;;;;;;37.50;28.50;;;;;10.86;55.29;101968.47;5033641;28;45425;-53
2022/04/30 04:35:45;;;;;;;;;33.25;24.25;;;;;10.85;54.63;101967.59;5037558;28;66241;-50
2022/04/30 04:38:10;;;;;;;;;36.00;29.75;;;;;10.80;55.39;101965.03;5033286;28;53557;-52
2022/04/30 04:40:36;;;;;;;;;34.00;23.75;;;;;10.76;55.41;101963.28;5050982;28;66185;-53
2022/04/30 04:43:01;;;;;;;;;34.75;26.75;;;;;10.77;55.50;101961.56;5023388;28;45324;-53
2022/04/30 04:45:27;;;;;;;;;35.25;28.25;;;;;10.74;55.50;101965.06;5038474;28;63252;-51
2022/04/30 04:47:52;;;;;;;;;38.75;33.00;;;;;10.70;55.67;101968.59;5033644;28;45328;-53
2022/04/30 04:50:18;;;;;;;;;30.50;22.25;;;;;10.69;55.54;101972.06;5038610;28;45355;-53
2022/04/30 04:52:44;;;;;;;;;41.00;30.25;;;;;10.70;55.99;101975.59;5035630;28;45333;-53
2022/04/30 04:55:10;;;;;;;;;29.25;26.50;;;;;10.71;55.58;101975.56;5037687;28;45515;-50
2022/04/30 04:57:35;;;;;;;;;40.75;28.75;;;;;10.75;55.81;101984.28;5035767;28;46995;-51
2022/04/30 05:00:02;;;;;;;;;46.00;31.50;;;;;10.77;55.54;101979.88;5036311;28;45152;-52
2022/04/30 05:02:27;;;;;;;;;42.25;31.00;;;;;10.78;56.17;101984.22;5036865;28;45427;-49
2022/04/30 05:04:53;;;;;;;;;41.00;30.75;;;;;10.78;55.19;101981.59;5032191;28;67756;-49
2022/04/30 05:07:18;;;;;;;;;32.00;29.25;;;;;10.75;55.93;101982.50;5036367;28;69232;-53
2022/04/30 05:09:43;;;;;;;;;37.00;29.25;;;;;10.75;55.90;101984.28;5037730;28;45452;-54
2022/04/30 05:12:09;;;;;;;;;47.00;33.50;;;;;10.75;55.62;101986.91;5036772;28;60547;-52
2022/04/30 05:14:35;;;;;;;;;41.00;29.25;;;;;10.75;55.99;101984.28;5035578;28;45440;-51
2022/04/30 05:17:01;;;;;;;;;42.50;30.25;;;;;10.75;56.00;101987.75;5038221;28;45499;-51
2022/04/30 05:19:26;;;;;;;;;40.00;34.50;;;;;10.75;56.25;101993.00;5037321;28;45483;-51
2022/04/30 05:21:51;;;;;;;;;40.00;30.00;;;;;10.74;55.54;101993.84;5038709;28;58294;-52
2022/04/30 05:24:17;;;;;;;;;39.25;32.00;;;;;10.71;56.18;101998.25;5028322;28;63787;-49
2022/04/30 05:26:42;;;;;;;;;45.00;32.50;;;;;10.72;56.20;102000.00;5041708;28;70100;-50
2022/04/30 05:29:08;;;;;;;;;44.00;31.00;;;;;10.72;56.04;102000.00;5015214;28;45685;-49
2022/04/30 05:31:33;;;;;;;;;41.50;30.75;;;;;10.73;56.42;102005.22;5041891;28;62071;-50
2022/04/30 05:33:59;;;;;;;;;37.00;30.50;;;;;10.79;56.48;102001.69;5036456;28;45507;-51
2022/04/30 05:36:24;;;;;;;;;45.25;28.00;;;;;10.85;56.00;102001.63;5041544;28;65197;-53
2022/04/30 05:38:51;;;;;;;;;40.00;32.25;;;;;10.93;55.80;102007.69;5033132;28;67566;-52
2022/04/30 05:41:16;;;;;;;;;44.00;33.00;;;;;10.96;56.24;102012.91;5042469;28;45293;-51
2022/04/30 05:43:42;;;;;;;;;43.25;31.25;;;;;11.01;55.96;102018.09;5033542;28;45442;-52
2022/04/30 05:46:08;;;;;;;;;42.00;32.00;;;;;11.04;55.77;102015.44;5041025;28;68535;-51
2022/04/30 05:48:33;;;;;;;;;46.25;31.00;;;;;11.09;55.48;102020.66;5035632;28;45372;-50
2022/04/30 05:50:58;;;;;;;;;40.25;32.00;;;;;11.10;55.86;102020.66;5041755;28;62892;-53
2022/04/30 05:53:24;;;;;;;;;41.50;32.25;;;;;11.14;55.91;102021.50;5035497;28;45429;-53
2022/04/30 05:55:49;;;;;;;;;44.50;31.75;;;;;11.16;55.73;102020.59;5042152;28;45509;-50
2022/04/30 05:58:14;;;;;;;;;38.75;32.00;;;;;11.20;55.38;102026.66;5034598;28;62174;-52
2022/04/30 06:00:40;;;;;;;;;41.50;31.75;;;;;11.21;55.23;102031.91;5041182;28;65622;-50
2022/04/30 06:03:05;;;;;;;;;38.75;28.00;;;;;11.20;55.15;102026.66;5034741;28;45601;-51
2022/04/30 06:05:31;;;;;;;;;41.25;29.75;;;;;11.16;54.95;102031.06;5037242;28;67952;-50
2022/04/30 06:07:56;;;;;;;;;39.00;31.25;;;;;11.14;55.18;102035.47;5032100;28;63646;-52
2022/04/30 06:10:21;;;;;;;;;28.75;28.00;;;;;11.14;55.38;102037.22;5041809;28;45789;-51
2022/04/30 06:12:47;;;;;;;;;40.50;32.50;;;;;11.11;55.33;102032.84;5037939;28;45616;-53
2022/04/30 06:15:12;;;;;;;;;41.75;33.25;;;;;11.09;54.87;102033.75;5040057;28;45973;-52
2022/04/30 06:17:38;;;;;;;;;34.50;29.00;;;;;11.04;55.24;102033.78;5038467;28;67550;-53
2022/04/30 06:20:03;;;;;;;;;33.75;28.50;;;;;11.04;55.65;102039.03;5041211;28;52808;-53
2022/04/30 06:22:29;;;;;;;;;34.50;28.75;;;;;11.06;55.36;102044.25;5039533;28;45530;-53
2022/04/30 06:24:54;;;;;;;;;38.25;32.75;;;;;11.07;54.98;102043.38;5033124;28;45975;-53
2022/04/30 06:27:20;;;;;;;;;40.00;33.50;;;;;11.06;55.68;102049.50;5039358;28;45425;-53
2022/04/30 06:29:45;;;;;;;;;38.50;30.00;;;;;11.10;55.16;102048.59;5034254;28;45273;-52
2022/04/30 06:32:12;;;;;;;;;39.75;31.50;;;;;11.13;54.99;102054.66;5039949;28;45459;-50
2022/04/30 06:34:39;;;;;;;;;40.75;31.75;;;;;11.13;55.26;102049.44;5036763;28;47017;-50
2022/04/30 06:37:04;;;;;;;;;42.50;31.25;;;;;11.16;54.71;102048.56;5040597;28;45479;-52
2022/04/30 06:39:30;;;;;;;;;32.50;24.00;;;;;11.17;54.61;102056.41;5033370;28;61482;-51
2022/04/30 06:41:56;;;;;;;;;42.25;31.25;;;;;11.19;54.71;102053.75;5040902;28;45712;-51
2022/04/30 06:44:21;;;;;;;;;41.25;26.50;;;;;11.24;54.74;102058.97;5039683;28;45433;-52
2022/04/30 06:46:46;;;;;;;;;34.75;29.50;;;;;11.26;54.83;102060.69;5040236;28;65508;-51
2022/04/30 06:49:12;;;;;;;;;40.50;27.50;;;;;11.32;54.64;102050.16;5034725;28;45631;-51
2022/04/30 06:51:37;;;;;;;;;39.25;30.50;;;;;11.40;54.68;102053.56;5041225;28;49428;-53
2022/04/30 06:59:36;;;;;;;;;44.00;31.25;;;;;11.70;53.89;102071.63;5036168;28;45409;-51
2022/04/30 07:02:05;;;;;;;;;33.75;27.75;;;;;11.76;53.75;102064.56;5040065;28;45272;-53
2022/04/30 07:04:30;;;;;;;;;35.75;26.75;;;;;11.83;53.66;102061.88;5035713;28;46084;-52
2022/04/30 07:06:56;;;;;;;;;33.50;24.50;;;;;11.90;53.48;102068.81;5040411;28;45379;-51
2022/04/30 07:09:21;;;;;;;;;37.75;26.00;;;;;11.99;53.43;102063.50;5034958;28;59993;-53
2022/04/30 07:11:47;;;;;;;;;40.25;25.00;;;;;12.06;53.22;102072.16;5039545;28;45273;-51
2022/04/30 07:14:12;;;;;;;;;27.25;23.75;;;;;12.11;53.21;102073.84;5034795;28;45995;-50
2022/04/30 07:16:38;;;;;;;;;29.75;24.00;;;;;12.14;52.96;102076.41;5039481;28;45278;-53
2022/04/30 07:19:03;;;;;;;;;37.25;25.50;;;;;12.19;52.85;102083.38;5037118;28;45365;-52
2022/04/30 07:21:31;;;;;;;;;34.50;26.00;;;;;12.26;52.73;102088.53;5039403;28;45292;-50
2022/04/30 07:23:57;;;;;;;;;33.25;26.50;;;;;12.32;52.75;102075.34;5030393;28;46152;-51
2022/04/30 07:26:22;;;;;;;;;34.50;25.75;;;;;12.38;52.30;102084.88;5040011;28;45297;-54
2022/04/30 07:28:47;;;;;;;;;28.50;27.25;;;;;12.42;52.17;102085.72;5031924;28;45273;-53
2022/04/30 07:31:13;;;;;;;;;30.25;25.75;;;;;12.45;52.13;102085.69;5038783;28;65683;-53
2022/04/30 07:33:38;;;;;;;;;34.00;25.50;;;;;12.45;51.72;102083.06;5034270;28;45459;-54
2022/04/30 07:36:04;;;;;;;;;26.00;22.50;;;;;12.43;51.85;102093.56;5039405;28;67513;-52
2022/04/30 07:38:30;;;;;;;;;30.50;21.75;;;;;12.39;51.87;102089.22;5033226;28;48037;-51
2022/04/30 07:40:55;;;;;;;;;39.00;22.75;;;;;12.38;51.52;102094.50;5039713;28;45528;-49
2022/04/30 07:43:20;;;;;;;;;29.00;24.25;;;;;12.37;51.78;102090.16;5033848;28;45562;-55
2022/04/30 07:45:46;;;;;;;;;27.75;22.75;;;;;12.34;51.83;102097.19;5039193;28;64876;-50
2022/04/30 07:48:11;;;;;;;;;30.50;22.50;;;;;12.34;51.72;102096.28;5032178;28;62362;-49
2022/04/30 07:50:37;;;;;;;;;35.75;24.50;;;;;12.32;51.92;102096.34;5040254;28;45624;-51
2022/04/30 07:53:06;;;;;;;;;34.75;26.00;;;;;12.35;51.91;102090.16;5033674;28;46048;-52
2022/04/30 07:55:31;;;;;;;;;31.75;23.75;;;;;12.42;51.91;102085.72;5040164;28;45782;-53
2022/04/30 07:57:57;;;;;;;;;33.25;24.50;;;;;12.50;51.77;102089.97;5033357;28;58669;-50
2022/04/30 08:00:23;;;;;;;;;33.50;26.00;;;;;12.56;51.69;102091.66;5039750;28;45580;-53
2022/04/30 08:02:49;;;;;;;;;28.00;22.75;;;;;12.61;51.47;102081.97;5034909;28;46332;-51
2022/04/30 08:05:14;;;;;;;;;30.75;24.75;;;;;12.70;51.57;102087.06;5034604;28;45354;-50
2022/04/30 08:07:40;;;;;;;;;29.00;26.00;;;;;12.80;51.49;102092.19;5035627;28;59113;-51
2022/04/30 08:10:06;;;;;;;;;34.00;24.75;;;;;12.86;51.10;102084.22;5038537;28;45544;-51
2022/04/30 08:12:31;;;;;;;;;31.00;26.00;;;;;12.93;50.87;102092.91;5037676;28;45534;-53
2022/04/30 08:14:56;;;;;;;;;27.00;21.50;;;;;12.98;50.99;102081.44;5036780;28;63115;-53
2022/04/30 08:17:23;;;;;;;;;20.25;19.25;;;;;13.09;50.56;102090.00;5037230;28;61079;-50
2022/04/30 08:19:48;;;;;;;;;29.25;23.25;;;;;13.18;50.19;102093.38;5038463;28;45355;-52
2022/04/30 08:22:14;;;;;;;;;30.25;25.00;;;;;13.23;50.10;102084.53;5037662;28;45969;-52
2022/04/30 08:24:39;;;;;;;;;26.50;18.00;;;;;13.33;49.98;102081.75;5031362;28;45364;-52
2022/04/30 08:27:05;;;;;;;;;27.75;24.25;;;;;13.34;50.00;102076.50;5037690;28;62241;-52
2022/04/30 08:29:30;;;;;;;;;35.50;27.50;;;;;13.36;49.76;102081.72;5031599;28;45434;-53
2022/04/30 08:31:56;;;;;;;;;28.50;23.25;;;;;13.41;49.80;102082.50;5039175;28;46058;-51
2022/04/30 08:34:21;;;;;;;;;36.75;25.50;;;;;13.48;49.73;102085.00;5033361;28;68824;-52
2022/04/30 08:36:47;;;;;;;;;31.25;20.25;;;;;13.61;49.48;102084.78;5038667;28;45476;-51
2022/04/30 08:39:12;;;;;;;;;27.75;22.00;;;;;13.73;49.24;102089.81;5030787;28;54864;-52
2022/04/30 08:41:39;;;;;;;;;35.25;25.25;;;;;13.84;48.90;102084.34;5038861;28;66440;-53
2022/04/30 08:44:04;;;;;;;;;32.75;24.50;;;;;13.97;49.05;102090.25;4998424;28;48186;-53
2022/04/30 08:46:30;;;;;;;;;29.00;24.00;;;;;14.02;48.85;102081.38;5030541;28;62077;-53
2022/04/30 08:48:55;;;;;;;;;25.00;20.25;;;;;14.03;48.40;102077.84;5032154;28;63896;-52
2022/04/30 08:51:20;;;;;;;;;25.00;22.50;;;;;14.05;48.88;102081.31;5037222;28;69094;-52
2022/04/30 08:53:46;;;;;;;;;26.50;22.00;;;;;14.03;48.45;102080.47;5032088;28;63866;-53
2022/04/30 08:56:11;;;;;;;;;27.25;25.25;;;;;14.08;48.46;102082.13;5020930;28;59248;-52
2022/04/30 08:58:37;;;;;;;;;33.50;25.00;;;;;14.10;48.02;102075.09;5035649;28;45517;-52
2022/04/30 09:01:04;;;;;;;;;25.75;22.50;;;;;14.16;48.08;102077.59;5041814;28;69640;-52
2022/04/30 09:03:33;;;;;;;;;25.00;20.75;;;;;14.32;48.04;102071.09;5037547;28;45371;-53
2022/04/30 09:05:58;;;;;;;;;24.00;22.75;;;;;14.57;47.65;102067.94;5039872;28;45273;-52
2022/04/30 09:08:24;;;;;;;;;21.75;18.50;;;;;14.84;47.65;102065.59;5038258;28;61000;-52
2022/04/30 09:10:50;;;;;;;;;25.50;23.00;;;;;15.25;46.62;102064.63;5041697;28;69127;-53
2022/04/30 09:13:16;;;;;;;;;20.50;19.00;;;;;15.93;46.35;102068.13;5039729;28;45349;-52
2022/04/30 09:15:45;;;;;;;;;22.00;18.00;;;;;17.35;44.88;102067.28;5041657;27;45326;-53
2022/04/30 09:18:14;;;;;;;;;21.50;19.75;;;;;18.93;42.40;102065.00;5038716;28;45288;-53
2022/04/30 09:20:41;;;;;;;;;25.50;17.75;;;;;20.15;40.44;102073.03;5036204;28;46137;-52
2022/04/30 09:23:08;;;;;;;;;20.25;17.50;;;;;21.28;39.14;102056.06;5039170;28;45910;-52
2022/04/30 09:25:33;;;;;;;;;21.50;18.00;;;;;22.32;37.74;102060.38;5031382;28;45391;-53
2022/04/30 09:27:59;;;;;;;;;21.50;14.75;;;;;23.24;35.31;102059.59;5039218;28;65670;-52
2022/04/30 09:30:32;;;;;;;;;18.25;15.50;;;;;24.09;34.68;102064.31;5030772;28;45416;-52
2022/04/30 09:32:58;;;;;;;;;15.00;10.00;;;;;24.76;33.79;102062.63;5025848;28;45401;-49
2022/04/30 09:38:08;;;;;;;;;18.25;16.50;;;;;26.24;30.91;102055.19;5037859;28;45635;-49
2022/04/30 09:40:33;;;;;;;;;23.25;16.25;;;;;27.00;31.81;102057.69;5020266;28;69129;-54
2022/04/30 09:43:01;;;;;;;;;17.00;15.75;;;;;27.64;31.21;102052.75;5035734;28;45480;-53
2022/04/30 09:45:30;;;;;;;;;17.50;15.00;;;;;28.26;29.93;102061.31;5042098;28;45581;-52
2022/04/30 09:47:57;;;;;;;;;15.75;12.25;;;;;28.84;28.22;102055.66;5035899;28;45420;-53
2022/04/30 09:55:53;;;;;;;;;16.25;13.50;;;;;30.56;26.53;102047.03;5042517;28;45320;-54
2022/04/30 09:58:26;;;;;;;;;13.25;12.00;;;;;31.26;25.84;102055.84;5035503;28;45574;-54
2022/04/30 10:00:58;;;;;;;;;11.75;11.00;;;;;31.81;24.88;102055.16;5041749;28;45366;-55
2022/04/30 10:03:28;;;;;;;;;12.00;10.50;;;;;32.10;24.33;102043.34;5036135;28;45325;-55
2022/04/30 10:05:58;;;;;;;;;9.75;7.00;;;;;32.51;23.21;102041.06;5038497;28;45301;-54
2022/04/30 10:08:24;;;;;;;;;13.50;11.00;;;;;32.90;22.63;102033.50;5037130;28;46197;-55
2022/04/30 10:10:51;;;;;;;;;10.00;9.50;;;;;33.38;21.59;102038.59;5039968;28;46156;-54
2022/04/30 10:13:28;;;;;;;;;9.75;7.25;;;;;33.77;21.14;102046.34;5036643;28;45439;-55
2022/04/30 10:15:53;;;;;;;;;11.25;9.25;;;;;33.94;21.22;102044.53;5024281;28;45387;-52
2022/04/30 10:18:23;;;;;;;;;11.00;10.50;;;;;34.13;20.03;102041.53;5037378;28;68407;-54
2022/04/30 10:20:51;;;;;;;;;10.25;9.50;;;;;34.50;19.18;102039.44;5041656;28;46369;-52
2022/04/30 10:23:17;;;;;;;;;15.75;12.50;;;;;34.61;19.69;102036.38;5036344;28;45403;-55
2022/04/30 10:25:46;;;;;;;;;16.50;11.00;;;;;34.81;19.69;102026.03;5035645;28;60593;-54
2022/04/30 10:28:15;;;;;;;;;15.50;13.75;;;;;35.12;19.20;102019.91;5037550;28;45221;-55
2022/04/30 10:30:40;;;;;;;;;11.00;9.25;;;;;35.54;19.11;102036.00;5036815;28;46338;-54
2022/04/30 10:33:07;;;;;;;;;12.50;11.25;;;;;35.99;18.75;102032.78;5037230;28;45275;-54
2022/04/30 10:35:34;;;;;;;;;14.00;12.50;;;;;36.29;18.22;102034.66;5037092;28;45542;-52
2022/04/30 10:38:06;;;;;;;;;13.00;12.50;;;;;36.76;16.79;102021.03;5035129;28;45504;-54
2022/04/30 10:40:39;;;;;;;;;15.50;10.75;;;;;37.27;17.63;102026.72;5041347;28;46329;-53
2022/04/30 10:43:20;;;;;;;;;9.50;9.50;;;;;37.64;17.37;102027.69;5034798;28;45419;-54
2022/04/30 10:45:46;;;;;;;;;11.25;10.00;;;;;37.77;17.03;102019.66;5041271;28;45302;-54
2022/04/30 10:48:11;;;;;;;;;24.75;19.00;;;;;37.86;16.81;102019.53;5034412;28;45473;-53
2022/04/30 10:50:36;;;;;;;;;11.00;10.75;;;;;37.90;16.48;102018.13;5052598;28;69220;-52
2022/04/30 10:53:02;;;;;;;;;9.75;8.75;;;;;37.91;16.59;102008.88;5027225;28;45458;-52
2022/04/30 10:55:27;;;;;;;;;9.00;8.00;;;;;37.74;15.65;102020.03;5020109;28;45427;-53
2022/04/30 10:57:53;;;;;;;;;10.25;9.25;;;;;36.48;16.20;102000.63;5027030;28;67153;-53
2022/04/30 11:00:18;;;;;;;;;12.00;10.00;;;;;34.34;17.78;102000.34;5039714;28;52007;-54
2022/04/30 11:02:43;;;;;;;;;14.00;12.00;;;;;32.34;17.75;101996.72;5036622;28;46609;-52
2022/04/30 11:05:19;;;;;;;;;10.75;8.50;;;;;30.51;19.24;101990.75;5035307;28;59343;-50
2022/04/30 11:07:44;;;;;;;;;12.75;10.50;;;;;29.19;20.60;102000.63;5034117;28;45331;-53
2022/04/30 11:10:11;;;;;;;;;9.25;8.50;;;;;28.01;20.74;101990.63;5040829;28;45471;-53
2022/04/30 11:12:36;;;;;;;;;11.00;9.50;;;;;26.98;22.27;102003.22;5037516;28;45315;-54
2022/04/30 11:15:01;;;;;;;;;11.25;9.50;;;;;26.06;22.97;101994.78;5028614;28;49556;-52
2022/04/30 11:17:27;;;;;;;;;12.50;9.50;;;;;25.18;23.11;101982.19;5038261;28;58843;-53
2022/04/30 11:19:55;;;;;;;;;9.75;9.00;;;;;24.45;23.87;101979.00;5040470;28;46858;-51
2022/04/30 11:22:20;;;;;;;;;8.50;7.25;;;;;23.87;24.60;101978.28;5037617;28;45281;-53
2022/04/30 11:24:46;;;;;;;;;13.75;9.75;;;;;23.35;24.50;101978.81;5031503;28;64170;-54
2022/04/30 11:27:12;;;;;;;;;10.00;9.00;;;;;22.89;25.36;101974.41;5037217;28;45513;-53
2022/04/30 11:29:51;;;;;;;;;10.75;7.00;;;;;22.47;25.17;101970.66;5033295;28;46202;-53
2022/04/30 11:32:23;;;;;;;;;9.00;7.50;;;;;22.13;25.89;101979.66;5039093;28;45871;-53
2022/04/30 11:34:50;;;;;;;;;8.25;7.00;;;;;21.93;25.72;101972.78;5036332;28;45361;-51
2022/04/30 11:37:15;;;;;;;;;7.50;6.75;;;;;21.91;26.02;101962.19;5038475;28;45329;-53
2022/04/30 11:39:40;;;;;;;;;8.25;6.00;;;;;21.90;26.40;101963.16;5035892;28;45938;-51
2022/04/30 11:42:06;;;;;;;;;11.00;7.00;;;;;21.91;26.28;101950.69;5038093;28;67259;-53